Osterild, Denmark
Current Conditions -  °F | °C
As of 6:50 PM on Friday 31 Oct 2014 (Local Time) from EKYT Reporting Station
Light Rain Light Rain  
Wind Chill: 54°   Ceiling: 100
Heat Index: 54°   Visibility: 0.93mi
Dew Point: 54°   Wind: 6mph
Humidity: 100%   Direction: 150°SSE
Pressure: 30.12"   Gusts: NA
Location:  57.03°N, 8.86°E
Report Text: EKYT 311750Z 15005KT 1500 -RA BR OVC001 12/12 Q1020
Loading
Personal Weather Stations






























Interactive Weather Map New forecast layout! Learn more

10-Day Weather Forecast

Advertisements
Track Severe Weather on mobile